Time;durP1;ratioP1;P1;durP2;ratioP2;P2;SDS_P1;SDS_P2;PMS_P1;PMS_P2;Temp;Humidity;BMP_temperature;BMP_pressure;BME280_temperature;BME280_humidity;BME280_pressure;Samples;Min_cycle;Max_cycle;Signal;HPM_P1;HPM_P2
2021/09/27 00:02:51;;;;;;;46.97;26.25;;;17.40;87.70;;;;;;6279991;28;20492;-78
2021/09/27 00:05:53;;;;;;;41.35;25.85;;;17.40;88.20;;;;;;6273098;28;20500;-78
2021/09/27 00:08:56;;;;;;;43.07;24.97;;;17.40;88.70;;;;;;6271635;28;20528;-77
2021/09/27 00:11:58;;;;;;;42.38;24.73;;;17.50;89.00;;;;;;6272379;28;20460;-77
2021/09/27 00:15:00;;;;;;;46.90;24.73;;;17.50;88.60;;;;;;6269638;28;20495;-77
2021/09/27 00:18:02;;;;;;;41.08;21.38;;;17.50;88.70;;;;;;6271774;28;20850;-78
2021/09/27 00:21:07;;;;;;;39.03;22.07;;;17.40;88.50;;;;;;6271132;28;20424;-78
2021/09/27 00:24:11;;;;;;;65.03;28.13;;;17.30;88.60;;;;;;6271709;28;20550;-77
2021/09/27 00:27:13;;;;;;;49.70;24.43;;;17.30;88.60;;;;;;6270982;28;20402;-77
2021/09/27 00:30:16;;;;;;;56.15;26.83;;;17.40;88.60;;;;;;6271116;28;21019;-78
2021/09/27 00:33:19;;;;;;;43.63;23.67;;;17.40;88.80;;;;;;6271133;28;20556;-77
2021/09/27 00:36:21;;;;;;;46.05;24.73;;;17.40;88.80;;;;;;6271927;28;20801;-77
2021/09/27 00:39:25;;;;;;;38.92;23.42;;;17.40;89.10;;;;;;6270911;28;20409;-78
2021/09/27 00:42:26;;;;;;;33.00;21.27;;;17.40;88.70;;;;;;6271019;28;20405;-77
2021/09/27 00:45:31;;;;;;;34.77;21.70;;;17.30;88.60;;;;;;6271109;28;20413;-77
2021/09/27 00:48:33;;;;;;;37.10;21.70;;;17.30;88.20;;;;;;6270887;28;20465;-78
2021/09/27 00:51:39;;;;;;;36.15;20.23;;;17.30;88.30;;;;;;6270900;28;20496;-78
2021/09/27 00:54:42;;;;;;;35.67;19.52;;;17.20;88.50;;;;;;6270586;28;20576;-78
2021/09/27 00:57:44;;;;;;;50.53;23.67;;;17.20;88.50;;;;;;6270841;28;21127;-78
2021/09/27 01:00:46;;;;;;;42.10;23.33;;;17.20;88.80;;;;;;6270320;28;20507;-77
2021/09/27 01:03:49;;;;;;;39.70;22.70;;;17.20;88.80;;;;;;6271073;28;20466;-78
2021/09/27 01:07:13;;;;;;;43.17;23.33;;;17.20;88.60;;;;;;6270530;28;20450;-78
2021/09/27 01:10:32;;;;;;;39.10;22.60;;;17.30;89.30;;;;;;6270566;28;20551;-78
2021/09/27 01:14:15;;;;;;;38.45;21.75;;;17.30;88.50;;;;;;6270249;28;20974;-77
2021/09/27 01:17:30;;;;;;;41.58;21.13;;;17.20;88.30;;;;;;6269179;28;20420;-77
2021/09/27 01:20:56;;;;;;;43.13;23.38;;;17.30;88.70;;;;;;6270340;28;20559;-77
2021/09/27 01:24:24;;;;;;;52.63;26.52;;;17.30;88.40;;;;;;6270434;28;20456;-77
2021/09/27 01:27:54;;;;;;;53.67;28.07;;;17.30;88.10;;;;;;6256794;28;20446;-78
2021/09/27 01:31:28;;;;;;;48.27;24.17;;;17.20;87.90;;;;;;6269777;28;20442;-77
2021/09/27 01:34:37;;;;;;;52.90;25.13;;;17.10;87.70;;;;;;6270275;28;20486;-77
2021/09/27 01:37:48;;;;;;;60.92;27.63;;;17.10;87.60;;;;;;6269688;28;20414;-77
2021/09/27 01:41:03;;;;;;;54.55;27.35;;;17.10;87.90;;;;;;6269954;28;20429;-77
2021/09/27 01:44:14;;;;;;;53.20;26.10;;;17.00;88.10;;;;;;6270148;28;20461;-77
2021/09/27 01:47:22;;;;;;;51.85;25.75;;;17.00;88.20;;;;;;6269623;28;20413;-77
2021/09/27 01:50:34;;;;;;;43.70;25.17;;;17.00;88.30;;;;;;6269494;28;25092;-77
2021/09/27 01:53:43;;;;;;;56.20;28.87;;;16.90;88.00;;;;;;6269737;28;20524;-78
2021/09/27 01:56:55;;;;;;;55.47;29.55;;;17.10;88.00;;;;;;6269380;28;25149;-77
2021/09/27 02:00:04;;;;;;;51.37;28.43;;;17.20;88.50;;;;;;6269794;28;20429;-77
2021/09/27 02:03:17;;;;;;;43.40;25.30;;;17.20;88.30;;;;;;6269563;28;20574;-78
2021/09/27 02:06:24;;;;;;;54.63;29.80;;;17.20;88.10;;;;;;6269719;28;20463;-77
2021/09/27 02:09:33;;;;;;;48.08;27.33;;;17.10;88.00;;;;;;6269045;28;20901;-78
2021/09/27 02:12:41;;;;;;;48.67;28.25;;;17.20;88.70;;;;;;6269906;28;25155;-78
2021/09/27 02:15:48;;;;;;;51.08;28.80;;;17.10;88.00;;;;;;6269190;28;20895;-78
2021/09/27 02:18:55;;;;;;;45.25;25.95;;;17.00;88.30;;;;;;6268878;28;20430;-77
2021/09/27 02:22:06;;;;;;;47.05;27.95;;;17.00;88.30;;;;;;6269389;28;20519;-77
2021/09/27 02:25:13;;;;;;;48.15;25.70;;;17.00;88.00;;;;;;6269324;28;20465;-77
2021/09/27 02:28:18;;;;;;;53.08;28.85;;;16.90;88.20;;;;;;6269703;28;20914;-78
2021/09/27 02:31:26;;;;;;;56.30;28.60;;;16.90;88.10;;;;;;6268822;28;20440;-77
2021/09/27 02:34:32;;;;;;;48.63;27.35;;;16.90;87.90;;;;;;6268946;28;20420;-77
2021/09/27 02:37:39;;;;;;;51.17;27.35;;;16.80;88.00;;;;;;6269486;28;20513;-77
2021/09/27 02:40:47;;;;;;;57.40;28.17;;;16.80;88.00;;;;;;6268605;28;21152;-76
2021/09/27 02:43:50;;;;;;;49.42;26.10;;;16.80;88.00;;;;;;6269405;28;20460;-77
2021/09/27 02:46:54;;;;;;;54.72;28.33;;;16.80;87.80;;;;;;6268978;28;20444;-77
2021/09/27 02:49:58;;;;;;;48.95;27.40;;;16.80;88.00;;;;;;6272320;28;20906;-77
2021/09/27 02:53:01;;;;;;;60.47;31.10;;;16.70;88.00;;;;;;6273588;28;20443;-77
2021/09/27 02:56:17;;;;;;;55.80;30.38;;;16.80;88.20;;;;;;6273988;28;20569;-77
2021/09/27 02:59:28;;;;;;;70.10;32.60;;;16.70;88.20;;;;;;6273130;28;25139;-77
2021/09/27 03:02:44;;;;;;;69.57;33.50;;;16.70;88.00;;;;;;6273303;28;25128;-77
2021/09/27 03:05:58;;;;;;;76.72;34.35;;;16.60;87.70;;;;;;6273166;28;25095;-77
2021/09/27 03:09:07;;;;;;;72.78;33.10;;;16.60;88.00;;;;;;6272517;28;25177;-77
2021/09/27 03:12:18;;;;;;;55.58;29.08;;;16.60;89.10;;;;;;6273655;28;25055;-77
2021/09/27 03:15:48;;;;;;;56.08;26.85;;;16.50;88.80;;;;;;6273091;28;25135;-77
2021/09/27 03:19:05;;;;;;;46.00;24.58;;;16.50;87.90;;;;;;6272772;28;25120;-76
2021/09/27 03:22:20;;;;;;;39.42;22.30;;;16.40;87.30;;;;;;6273038;28;20945;-78
2021/09/27 03:25:34;;;;;;;38.42;22.27;;;16.30;87.00;;;;;;6273025;28;20467;-77
2021/09/27 03:28:46;;;;;;;38.75;22.35;;;16.30;86.80;;;;;;6272965;28;20432;-77
2021/09/27 03:31:55;;;;;;;42.75;23.35;;;16.10;86.30;;;;;;6273082;28;20488;-77
2021/09/27 03:35:05;;;;;;;42.77;24.97;;;16.00;86.40;;;;;;6272664;28;20413;-77
2021/09/27 03:38:15;;;;;;;35.07;20.07;;;15.90;87.20;;;;;;6273025;28;20415;-76
2021/09/27 03:41:26;;;;;;;35.28;21.75;;;15.80;87.10;;;;;;6272271;28;20413;-77
2021/09/27 03:44:37;;;;;;;41.73;22.60;;;15.80;86.90;;;;;;6273083;28;20479;-77
2021/09/27 03:47:50;;;;;;;40.80;23.58;;;15.70;86.90;;;;;;6272500;28;20432;-77
2021/09/27 03:50:57;;;;;;;33.33;21.95;;;15.60;87.10;;;;;;6272089;28;20556;-77
2021/09/27 03:54:05;;;;;;;30.83;19.35;;;15.50;87.20;;;;;;6272182;28;20414;-77
2021/09/27 03:57:14;;;;;;;39.95;20.38;;;15.50;87.20;;;;;;6272353;28;20445;-77
2021/09/27 04:00:22;;;;;;;33.58;19.80;;;15.50;86.90;;;;;;6272178;28;20535;-77
2021/09/27 04:03:48;;;;;;;30.23;18.33;;;15.50;87.60;;;;;;6272087;28;20543;-77
2021/09/27 04:06:58;;;;;;;34.42;20.13;;;15.40;87.00;;;;;;6273021;28;20424;-77
2021/09/27 04:10:10;;;;;;;29.65;19.52;;;15.40;87.00;;;;;;6271817;28;20418;-77
2021/09/27 04:13:25;;;;;;;32.13;19.88;;;15.40;87.00;;;;;;6272065;28;20413;-77
2021/09/27 04:16:38;;;;;;;30.63;19.50;;;15.40;87.10;;;;;;6272368;28;20432;-77
2021/09/27 04:19:51;;;;;;;27.20;17.48;;;15.40;87.00;;;;;;6271959;28;20748;-77
2021/09/27 04:23:06;;;;;;;28.95;18.45;;;15.30;86.80;;;;;;6271780;28;20507;-77
2021/09/27 04:26:19;;;;;;;31.92;19.33;;;15.20;86.50;;;;;;6271665;28;20439;-77
2021/09/27 04:29:43;;;;;;;33.17;20.50;;;15.20;86.50;;;;;;6271015;28;20781;-77
2021/09/27 04:33:03;;;;;;;26.67;18.88;;;15.10;86.90;;;;;;6271411;28;20526;-77
2021/09/27 04:36:16;;;;;;;33.40;22.00;;;15.10;86.90;;;;;;6271932;28;20429;-77
2021/09/27 04:39:21;;;;;;;32.05;20.67;;;15.00;86.60;;;;;;6271157;28;20498;-76
2021/09/27 04:42:56;;;;;;;31.15;20.20;;;15.00;86.80;;;;;;6271411;28;20495;-77
2021/09/27 04:46:08;;;;;;;32.47;20.33;;;15.00;87.20;;;;;;6270993;28;20484;-76
2021/09/27 04:49:23;;;;;;;33.33;19.50;;;15.00;87.00;;;;;;6270920;28;20410;-76
2021/09/27 04:52:36;;;;;;;27.17;19.13;;;15.00;87.10;;;;;;6271291;28;20521;-76
2021/09/27 04:55:56;;;;;;;27.67;18.10;;;15.00;87.00;;;;;;6270711;28;20428;-76
2021/09/27 04:59:07;;;;;;;36.83;21.47;;;14.90;86.40;;;;;;6270743;28;20540;-77
2021/09/27 05:02:26;;;;;;;32.85;19.85;;;14.90;86.40;;;;;;6270765;28;20425;-77
2021/09/27 05:05:40;;;;;;;24.33;16.65;;;14.90;87.30;;;;;;6270626;28;20413;-76
2021/09/27 05:09:01;;;;;;;24.23;17.10;;;14.90;86.50;;;;;;6270278;28;20787;-76
2021/09/27 05:12:26;;;;;;;29.55;16.77;;;14.90;86.40;;;;;;6270419;28;20515;-76
2021/09/27 05:15:42;;;;;;;30.30;18.45;;;14.80;86.40;;;;;;6270271;28;21151;-76
2021/09/27 05:19:12;;;;;;;21.73;15.60;;;14.80;87.60;;;;;;6269856;28;20999;-76
2021/09/27 05:22:34;;;;;;;26.20;17.55;;;14.80;85.80;;;;;;6270157;28;20414;-76
2021/09/27 05:26:05;;;;;;;18.13;14.30;;;14.70;87.10;;;;;;6270262;28;20472;-76
2021/09/27 05:29:23;;;;;;;18.88;14.65;;;14.80;87.60;;;;;;6270090;28;20445;-76
2021/09/27 05:32:36;;;;;;;15.18;12.43;;;15.00;86.80;;;;;;6270796;28;20433;-76
2021/09/27 05:36:02;;;;;;;17.02;13.80;;;15.10;86.20;;;;;;6269764;28;20496;-76
2021/09/27 05:39:12;;;;;;;18.90;14.48;;;15.20;86.90;;;;;;6269593;28;20933;-77
2021/09/27 05:42:22;;;;;;;18.93;13.27;;;15.30;86.60;;;;;;6269910;28;20494;-76
2021/09/27 05:45:42;;;;;;;29.23;15.63;;;15.40;86.00;;;;;;6270092;28;20990;-76
2021/09/27 05:48:49;;;;;;;18.92;14.20;;;15.50;85.90;;;;;;6269744;28;20429;-76
2021/09/27 05:51:59;;;;;;;16.05;14.32;;;15.60;85.50;;;;;;6270333;28;20437;-77
2021/09/27 05:55:06;;;;;;;23.08;16.65;;;15.70;85.10;;;;;;6269841;28;20518;-77
2021/09/27 05:58:16;;;;;;;17.42;14.40;;;15.80;84.50;;;;;;6269782;28;20421;-76
2021/09/27 06:01:25;;;;;;;18.43;14.33;;;15.60;84.40;;;;;;6269402;28;21107;-76
2021/09/27 06:04:37;;;;;;;17.15;14.68;;;15.60;85.10;;;;;;6270256;28;20471;-75
2021/09/27 06:07:48;;;;;;;32.03;20.40;;;15.60;84.90;;;;;;6269548;28;20787;-76
2021/09/27 06:10:57;;;;;;;30.60;18.02;;;15.50;85.60;;;;;;6268911;28;20433;-76
2021/09/27 06:14:01;;;;;;;23.42;16.55;;;15.60;86.10;;;;;;6269611;28;20830;-76
2021/09/27 06:17:20;;;;;;;20.30;15.55;;;15.70;86.10;;;;;;6269575;28;20907;-77
2021/09/27 06:20:31;;;;;;;25.67;15.30;;;15.70;85.70;;;;;;6270085;28;20480;-76
2021/09/27 06:23:53;;;;;;;19.40;15.63;;;15.70;85.70;;;;;;6270794;28;20504;-76
2021/09/27 06:27:03;;;;;;;21.55;15.00;;;15.70;85.70;;;;;;6274193;28;20954;-76
2021/09/27 06:30:12;;;;;;;23.70;14.38;;;15.80;85.90;;;;;;6274026;28;20441;-75
2021/09/27 06:33:20;;;;;;;22.00;15.48;;;16.00;85.90;;;;;;6274620;28;20405;-76
2021/09/27 06:36:25;;;;;;;22.52;15.75;;;16.00;85.60;;;;;;6276000;28;20432;-76
2021/09/27 06:39:31;;;;;;;17.65;13.40;;;16.20;86.80;;;;;;6273912;28;20588;-76
2021/09/27 06:42:32;;;;;;;18.85;14.48;;;16.40;85.90;;;;;;6274016;28;20465;-76
2021/09/27 06:45:34;;;;;;;19.87;15.13;;;16.50;85.70;;;;;;6274258;28;20508;-76
2021/09/27 06:48:36;;;;;;;24.48;16.58;;;16.70;86.10;;;;;;6273816;28;20515;-76
2021/09/27 06:51:42;;;;;;;18.52;15.18;;;16.80;86.20;;;;;;6273906;28;20444;-76
2021/09/27 06:54:45;;;;;;;29.33;18.92;;;16.90;86.00;;;;;;6273588;28;20469;-76
2021/09/27 06:57:47;;;;;;;27.40;18.67;;;17.20;86.50;;;;;;6273854;28;20478;-76
2021/09/27 07:00:49;;;;;;;18.38;13.00;;;17.40;86.80;;;;;;6273474;28;20436;-76
2021/09/27 07:03:51;;;;;;;16.23;14.47;;;17.70;85.60;;;;;;6273716;28;20937;-76
2021/09/27 07:06:53;;;;;;;19.92;15.13;;;17.90;84.30;;;;;;6273878;28;20971;-76
2021/09/27 07:09:56;;;;;;;16.95;14.13;;;18.20;84.10;;;;;;6273040;28;20813;-76
2021/09/27 07:12:58;;;;;;;17.17;15.13;;;18.50;83.10;;;;;;6273405;28;20531;-76
2021/09/27 07:16:00;;;;;;;13.70;12.40;;;19.00;83.60;;;;;;6273836;28;20591;-76
2021/09/27 07:19:02;;;;;;;13.75;12.35;;;19.40;79.90;;;;;;6273290;28;20934;-76
2021/09/27 07:22:04;;;;;;;13.73;11.60;;;19.60;79.10;;;;;;6273237;28;20415;-76
2021/09/27 07:25:09;;;;;;;15.50;13.10;;;19.70;78.60;;;;;;6285573;28;20483;-76
2021/09/27 07:28:11;;;;;;;19.38;12.68;;;19.60;78.70;;;;;;6284949;28;20444;-76
2021/09/27 07:31:13;;;;;;;15.50;13.97;;;19.50;78.70;;;;;;6274136;28;20506;-76
2021/09/27 07:34:15;;;;;;;20.02;15.77;;;19.60;78.80;;;;;;6271072;28;20498;-75
2021/09/27 07:37:17;;;;;;;16.88;14.85;;;19.80;78.90;;;;;;6265075;28;20420;-76
2021/09/27 07:40:22;;;;;;;15.15;13.65;;;19.90;78.60;;;;;;6247284;28;20525;-76
2021/09/27 07:43:24;;;;;;;16.65;12.68;;;19.90;78.60;;;;;;6247366;28;20445;-76
2021/09/27 07:46:27;;;;;;;19.98;14.80;;;19.90;78.50;;;;;;6247166;28;20407;-76
2021/09/27 07:49:29;;;;;;;16.67;13.10;;;19.90;79.10;;;;;;6246664;28;20513;-76
2021/09/27 07:52:30;;;;;;;17.27;14.25;;;19.80;78.50;;;;;;6247480;28;20495;-76
2021/09/27 07:55:34;;;;;;;16.83;14.40;;;19.80;78.60;;;;;;6269359;28;20475;-76
2021/09/27 07:58:36;;;;;;;17.90;14.90;;;19.80;79.20;;;;;;6291398;28;20499;-76
2021/09/27 08:01:38;;;;;;;19.40;15.32;;;19.80;79.80;;;;;;6296092;28;20958;-76
2021/09/27 08:04:39;;;;;;;18.17;15.63;;;19.80;80.10;;;;;;6296256;28;20565;-76
2021/09/27 08:07:41;;;;;;;15.77;13.60;;;19.80;79.70;;;;;;6296441;28;20846;-76
2021/09/27 08:10:45;;;;;;;19.20;15.32;;;19.90;78.70;;;;;;6295674;28;20461;-76
2021/09/27 08:13:47;;;;;;;14.43;12.93;;;20.10;79.70;;;;;;6295725;28;20499;-76
2021/09/27 08:16:49;;;;;;;15.40;12.97;;;20.40;77.50;;;;;;6295924;28;20467;-77
2021/09/27 08:19:51;;;;;;;15.18;13.55;;;20.90;78.30;;;;;;6296024;28;20497;-76
2021/09/27 08:22:53;;;;;;;12.98;11.65;;;21.60;75.70;;;;;;6295765;28;20824;-77
2021/09/27 08:25:57;;;;;;;14.82;10.70;;;22.30;73.30;;;;;;6285771;28;20414;-76
2021/09/27 08:28:58;;;;;;;10.85;9.80;;;22.80;69.00;;;;;;6293908;28;20438;-76
2021/09/27 08:32:00;;;;;;;11.02;9.75;;;23.00;71.20;;;;;;6295741;28;20597;-76
2021/09/27 08:35:03;;;;;;;9.75;8.75;;;23.00;68.70;;;;;;6295399;28;20408;-77
2021/09/27 08:38:08;;;;;;;9.80;8.43;;;23.10;68.70;;;;;;6268159;28;20442;-77
2021/09/27 08:41:24;;;;;;;9.77;8.88;;;23.20;67.60;;;;;;6270246;28;20961;-77
2021/09/27 08:44:41;;;;;;;9.05;7.60;;;23.40;67.50;;;;;;6270710;28;20508;-77
2021/09/27 08:47:52;;;;;;;9.87;8.40;;;23.50;66.20;;;;;;6269289;28;20779;-77
2021/09/27 08:50:54;;;;;;;8.20;7.18;;;23.50;67.20;;;;;;6269843;28;20417;-76
2021/09/27 08:53:56;;;;;;;8.18;7.38;;;23.70;66.30;;;;;;6269335;28;20506;-76
2021/09/27 08:57:06;;;;;;;8.68;7.97;;;23.80;65.10;;;;;;6285240;28;20508;-77
2021/09/27 09:00:15;;;;;;;8.93;7.30;;;24.00;65.10;;;;;;6295018;28;20574;-77
2021/09/27 09:03:23;;;;;;;9.00;6.70;;;24.20;64.50;;;;;;6250897;28;20474;-77
2021/09/27 09:06:32;;;;;;;9.40;7.05;;;24.50;63.90;;;;;;6245613;28;20491;-76
2021/09/27 09:09:41;;;;;;;11.23;6.85;;;24.80;62.10;;;;;;6244756;28;20546;-76
2021/09/27 09:12:48;;;;;;;7.40;6.73;;;25.10;61.30;;;;;;6244774;28;20435;-76
2021/09/27 09:15:55;;;;;;;8.30;7.50;;;25.00;61.10;;;;;;6244896;28;20485;-76
2021/09/27 09:19:02;;;;;;;8.07;7.28;;;24.90;62.40;;;;;;6244447;28;20549;-76
2021/09/27 09:22:10;;;;;;;7.45;6.75;;;25.20;61.10;;;;;;6245369;28;20420;-76
2021/09/27 09:25:17;;;;;;;9.17;8.10;;;25.60;60.10;;;;;;6264714;28;20488;-77
2021/09/27 09:28:22;;;;;;;8.37;7.57;;;25.80;58.50;;;;;;6287642;28;20423;-76
2021/09/27 09:31:26;;;;;;;9.70;7.03;;;25.80;58.20;;;;;;6293489;28;20422;-76
2021/09/27 09:34:34;;;;;;;9.52;7.25;;;25.80;59.10;;;;;;6293935;28;20442;-76
2021/09/27 09:37:39;;;;;;;9.38;7.50;;;26.00;58.30;;;;;;6286082;28;20417;-77
2021/09/27 09:40:52;;;;;;;13.07;7.20;;;26.20;59.00;;;;;;6248742;28;20496;-76
2021/09/27 09:43:55;;;;;;;9.93;7.40;;;26.20;56.90;;;;;;6244981;28;20435;-76
2021/09/27 09:47:02;;;;;;;6.65;6.05;;;26.10;57.60;;;;;;6244563;28;20459;-76
2021/09/27 09:50:07;;;;;;;6.65;5.82;;;26.20;57.50;;;;;;6244331;28;20466;-76
2021/09/27 09:53:26;;;;;;;7.68;6.65;;;26.50;57.00;;;;;;6244361;28;20756;-76
2021/09/27 09:56:32;;;;;;;6.70;5.47;;;26.80;57.20;;;;;;6277393;28;20570;-76
2021/09/27 09:59:38;;;;;;;6.33;5.13;;;27.10;54.10;;;;;;6293329;28;20416;-76
2021/09/27 10:02:42;;;;;;;6.07;5.47;;;27.20;55.10;;;;;;6293788;28;20860;-76
2021/09/27 10:05:50;;;;;;;7.65;5.25;;;27.50;54.50;;;;;;6293682;28;20843;-76
2021/09/27 10:08:55;;;;;;;5.23;4.73;;;27.50;52.10;;;;;;6293259;28;20573;-77
2021/09/27 10:12:00;;;;;;;5.38;4.25;;;27.60;51.20;;;;;;6294161;28;20463;-76
2021/09/27 10:15:04;;;;;;;6.97;5.00;;;27.60;51.60;;;;;;6293240;28;21189;-77
2021/09/27 10:18:14;;;;;;;4.97;4.47;;;27.60;53.30;;;;;;6293767;28;20482;-76
2021/09/27 10:21:32;;;;;;;5.13;4.63;;;27.80;52.60;;;;;;6292937;28;20538;-76
2021/09/27 10:24:39;;;;;;;5.43;4.78;;;28.00;50.30;;;;;;6290290;28;20439;-76
2021/09/27 10:27:44;;;;;;;7.18;4.18;;;28.20;50.30;;;;;;6285260;28;20545;-76
2021/09/27 10:30:51;;;;;;;4.57;4.13;;;28.40;51.30;;;;;;6293205;28;20415;-76
2021/09/27 10:33:57;;;;;;;5.95;4.38;;;28.60;48.70;;;;;;6293235;28;20407;-75
2021/09/27 10:37:07;;;;;;;6.03;4.70;;;28.70;49.10;;;;;;6293262;28;20501;-77
2021/09/27 10:40:16;;;;;;;4.40;4.00;;;28.70;50.30;;;;;;6268689;28;20795;-77
2021/09/27 10:43:21;;;;;;;7.72;4.03;;;28.90;49.10;;;;;;6268487;28;20436;-76
2021/09/27 10:46:32;;;;;;;5.38;4.40;;;29.00;47.80;;;;;;6268547;28;20504;-76
2021/09/27 10:49:41;;;;;;;5.93;4.00;;;29.00;48.50;;;;;;6268566;28;20503;-76
2021/09/27 10:52:47;;;;;;;6.38;4.00;;;28.90;49.10;;;;;;6268310;28;20433;-76
2021/09/27 10:55:54;;;;;;;4.78;4.38;;;28.60;48.80;;;;;;6273639;28;20432;-76
2021/09/27 10:58:59;;;;;;;4.35;3.85;;;28.40;48.70;;;;;;6291049;28;20502;-77
2021/09/27 11:02:10;;;;;;;4.28;3.55;;;28.20;48.80;;;;;;6293201;28;20441;-76
2021/09/27 11:05:24;;;;;;;3.53;3.23;;;28.20;49.10;;;;;;6292892;28;20420;-76
2021/09/27 11:08:40;;;;;;;4.47;3.37;;;28.20;49.80;;;;;;6293335;28;20916;-76
2021/09/27 11:11:47;;;;;;;5.15;3.25;;;28.20;49.70;;;;;;6297631;28;20508;-77
2021/09/27 11:14:52;;;;;;;5.32;2.97;;;28.00;49.90;;;;;;6297132;28;20923;-77
2021/09/27 11:18:07;;;;;;;3.28;2.92;;;28.00;49.90;;;;;;6296766;28;20896;-77
2021/09/27 11:21:22;;;;;;;3.30;3.00;;;28.10;49.90;;;;;;6296986;28;20407;-77
2021/09/27 11:24:50;;;;;;;7.32;3.58;;;28.10;49.10;;;;;;6293688;28;20488;-76
2021/09/27 11:28:15;;;;;;;3.35;2.88;;;28.00;49.80;;;;;;6272625;28;20447;-77
2021/09/27 11:31:38;;;;;;;3.40;3.10;;;27.80;49.80;;;;;;6296571;28;20420;-76
2021/09/27 11:34:56;;;;;;;3.33;2.97;;;27.70;49.50;;;;;;6297210;28;20415;-77
2021/09/27 11:38:29;;;;;;;3.70;2.90;;;27.70;50.90;;;;;;6297246;28;20766;-77
2021/09/27 11:41:36;;;;;;;2.83;2.60;;;27.90;50.60;;;;;;6271638;28;20419;-77
2021/09/27 11:44:52;;;;;;;4.35;3.00;;;28.10;48.40;;;;;;6248237;28;20504;-77
2021/09/27 11:48:05;;;;;;;3.72;2.70;;;28.10;48.20;;;;;;6247665;28;20884;-76
2021/09/27 11:51:40;;;;;;;2.58;2.03;;;28.20;47.60;;;;;;6247698;28;20422;-77
2021/09/27 11:54:51;;;;;;;4.20;2.85;;;28.00;47.20;;;;;;6204437;28;20416;-76
2021/09/27 11:57:57;;;;;;;2.55;2.33;;;27.90;48.10;;;;;;6288557;28;20411;-76
2021/09/27 12:01:06;;;;;;;5.53;2.50;;;27.90;48.10;;;;;;6296283;28;20535;-77
2021/09/27 12:04:23;;;;;;;3.20;2.25;;;27.70;48.00;;;;;;6297575;28;20459;-77
2021/09/27 12:07:37;;;;;;;3.75;2.33;;;27.60;47.50;;;;;;6296416;28;20496;-77
2021/09/27 12:10:44;;;;;;;3.13;2.80;;;27.50;47.70;;;;;;6295720;28;20439;-76
2021/09/27 12:13:48;;;;;;;2.97;2.40;;;27.70;48.50;;;;;;6296034;28;20439;-76
2021/09/27 12:16:53;;;;;;;2.93;2.63;;;27.90;48.30;;;;;;6296510;28;20489;-76
2021/09/27 12:19:58;;;;;;;2.73;2.43;;;28.20;46.30;;;;;;6296139;28;20430;-76
2021/09/27 12:23:02;;;;;;;3.78;2.33;;;28.50;47.00;;;;;;6296203;28;20541;-78
2021/09/27 12:26:04;;;;;;;2.67;2.30;;;28.70;47.90;;;;;;6284384;28;20424;-77
2021/09/27 12:29:12;;;;;;;3.83;2.65;;;28.70;45.60;;;;;;6295286;28;20964;-77
2021/09/27 12:32:14;;;;;;;2.63;2.40;;;28.70;46.90;;;;;;6295942;28;20431;-76
2021/09/27 12:35:20;;;;;;;3.50;2.95;;;28.80;46.30;;;;;;6295476;28;20532;-77
2021/09/27 12:38:24;;;;;;;2.60;2.40;;;28.80;47.00;;;;;;6295233;28;20459;-77
2021/09/27 12:41:28;;;;;;;3.63;3.27;;;28.80;45.90;;;;;;6277074;28;21189;-78
2021/09/27 12:44:33;;;;;;;3.83;2.38;;;28.80;46.00;;;;;;6267445;28;20483;-77
2021/09/27 12:47:35;;;;;;;7.27;2.83;;;28.50;46.40;;;;;;6271000;28;20423;-77
2021/09/27 12:50:40;;;;;;;3.63;2.30;;;28.40;46.40;;;;;;6271055;28;20487;-77
2021/09/27 12:53:46;;;;;;;3.85;2.60;;;28.40;47.40;;;;;;6271189;28;20512;-77
2021/09/27 12:56:48;;;;;;;4.93;2.70;;;28.50;46.30;;;;;;6275493;28;20512;-77
2021/09/27 12:59:50;;;;;;;5.03;3.25;;;28.40;46.90;;;;;;6270306;28;20486;-77
2021/09/27 13:02:53;;;;;;;3.47;2.60;;;28.40;46.10;;;;;;6290330;28;20420;-77
2021/09/27 13:06:09;;;;;;;3.35;2.33;;;28.40;47.30;;;;;;6290237;28;20418;-77
2021/09/27 13:09:20;;;;;;;2.93;2.17;;;28.50;46.70;;;;;;6278848;28;20422;-77
2021/09/27 13:12:28;;;;;;;3.90;2.30;;;28.70;46.50;;;;;;6288467;28;20536;-77
2021/09/27 13:15:34;;;;;;;3.73;3.20;;;28.60;45.60;;;;;;6292301;28;20524;-77
2021/09/27 13:18:42;;;;;;;4.25;2.40;;;28.50;45.90;;;;;;6274942;28;20787;-77
2021/09/27 13:21:47;;;;;;;4.03;3.05;;;28.40;47.20;;;;;;6287993;28;20432;-76
2021/09/27 13:24:55;;;;;;;2.08;1.95;;;28.20;46.10;;;;;;6274253;28;20424;-77
2021/09/27 13:28:01;;;;;;;3.55;2.58;;;27.90;46.80;;;;;;6281674;28;20442;-77
2021/09/27 13:31:08;;;;;;;3.53;2.42;;;27.70;47.20;;;;;;6288432;28;20559;-77
2021/09/27 13:34:31;;;;;;;2.70;2.22;;;27.50;48.10;;;;;;6286876;28;20411;-77
2021/09/27 13:37:51;;;;;;;3.80;2.72;;;27.30;48.80;;;;;;6276315;28;20965;-77
2021/09/27 13:41:10;;;;;;;2.88;2.67;;;27.00;48.90;;;;;;6272555;28;20425;-77
2021/09/27 13:44:32;;;;;;;2.77;2.47;;;26.80;50.40;;;;;;6269837;28;20432;-77
2021/09/27 13:47:34;;;;;;;2.83;2.10;;;26.60;50.00;;;;;;6271254;28;20924;-77
2021/09/27 13:50:38;;;;;;;2.90;2.63;;;26.50;51.20;;;;;;6281164;28;20494;-77
2021/09/27 13:53:46;;;;;;;3.22;2.42;;;26.50;53.10;;;;;;6280313;28;20419;-77
2021/09/27 13:56:50;;;;;;;3.00;2.38;;;26.50;51.10;;;;;;6286080;28;20800;-78
2021/09/27 13:59:52;;;;;;;5.03;2.88;;;26.40;52.00;;;;;;6277440;28;20437;-78
2021/09/27 14:02:53;;;;;;;4.97;2.65;;;26.40;51.90;;;;;;6282213;28;20457;-77
2021/09/27 14:05:56;;;;;;;3.83;2.80;;;26.20;52.60;;;;;;6282821;28;20510;-77
2021/09/27 14:08:58;;;;;;;3.85;2.25;;;26.00;52.70;;;;;;6279031;28;20737;-77
2021/09/27 14:12:01;;;;;;;2.38;2.13;;;25.70;52.80;;;;;;6289096;28;20564;-77
2021/09/27 14:15:03;;;;;;;2.75;2.50;;;25.60;54.50;;;;;;6286217;28;20491;-77
2021/09/27 14:18:05;;;;;;;3.75;2.17;;;25.60;53.30;;;;;;6276759;28;20455;-77
2021/09/27 14:21:09;;;;;;;2.65;2.45;;;25.50;54.20;;;;;;6286322;28;20480;-78
2021/09/27 14:24:11;;;;;;;3.00;2.53;;;25.40;54.80;;;;;;6287801;28;20444;-77
2021/09/27 14:27:14;;;;;;;3.90;2.58;;;25.40;55.50;;;;;;6280488;28;20488;-77
2021/09/27 14:30:17;;;;;;;2.72;2.42;;;25.40;55.50;;;;;;6286711;28;20416;-77
2021/09/27 14:33:18;;;;;;;5.75;2.30;;;25.40;55.70;;;;;;6286496;28;20494;-77
2021/09/27 14:36:20;;;;;;;3.60;2.85;;;25.40;56.00;;;;;;6293680;28;20488;-78
2021/09/27 14:39:23;;;;;;;4.00;2.50;;;25.40;55.90;;;;;;6286479;28;20576;-77
2021/09/27 14:42:27;;;;;;;4.70;2.40;;;25.30;58.10;;;;;;6277832;28;21158;-78
2021/09/27 14:45:29;;;;;;;4.25;2.35;;;25.20;57.90;;;;;;6276061;28;20496;-77
2021/09/27 14:48:31;;;;;;;5.38;2.60;;;25.00;57.50;;;;;;6297303;28;20480;-77
2021/09/27 14:51:33;;;;;;;5.50;2.50;;;24.90;58.00;;;;;;6292655;28;20566;-77
2021/09/27 14:54:35;;;;;;;3.67;2.72;;;24.90;60.00;;;;;;6285322;28;20508;-77
2021/09/27 14:57:38;;;;;;;4.40;2.58;;;24.70;60.70;;;;;;6290681;28;20420;-78
2021/09/27 15:00:42;;;;;;;4.38;3.17;;;24.60;60.20;;;;;;6292862;28;20820;-77
2021/09/27 15:03:49;;;;;;;3.83;3.17;;;24.50;63.10;;;;;;6294351;28;21013;-77
2021/09/27 15:06:51;;;;;;;3.45;2.63;;;24.40;63.50;;;;;;6290887;28;20908;-77
2021/09/27 15:09:53;;;;;;;4.28;2.78;;;24.30;63.80;;;;;;6293672;28;20441;-77
2021/09/27 15:12:56;;;;;;;4.07;3.08;;;24.30;64.30;;;;;;6279577;28;20460;-77
2021/09/27 15:15:58;;;;;;;3.15;2.85;;;24.30;65.60;;;;;;6290289;28;20506;-77
2021/09/27 15:19:00;;;;;;;3.33;3.03;;;24.30;64.20;;;;;;6290375;28;20444;-77
2021/09/27 15:22:01;;;;;;;5.47;3.08;;;24.30;65.70;;;;;;6286057;28;20550;-78
2021/09/27 15:25:07;;;;;;;6.05;3.42;;;24.30;66.30;;;;;;6293143;28;20420;-78
2021/09/27 15:28:10;;;;;;;4.18;2.90;;;24.30;65.50;;;;;;6287468;28;20433;-77
2021/09/27 15:31:15;;;;;;;4.80;3.58;;;24.30;66.10;;;;;;6286718;28;20413;-77
2021/09/27 15:34:19;;;;;;;8.27;3.40;;;24.20;65.10;;;;;;6285534;28;20439;-77
2021/09/27 15:37:25;;;;;;;7.55;2.90;;;24.30;66.20;;;;;;6290890;28;20405;-77
2021/09/27 15:40:26;;;;;;;3.42;3.13;;;24.30;66.30;;;;;;6285457;28;20506;-77
2021/09/27 15:43:30;;;;;;;4.88;3.17;;;24.30;63.80;;;;;;6289681;28;20502;-77
2021/09/27 15:46:31;;;;;;;4.88;2.33;;;24.40;64.30;;;;;;6280266;28;20484;-77
2021/09/27 15:49:35;;;;;;;6.40;3.50;;;24.40;64.00;;;;;;6296133;28;20491;-77
2021/09/27 15:52:37;;;;;;;3.58;3.25;;;24.50;64.10;;;;;;6284083;28;20989;-77
2021/09/27 15:55:39;;;;;;;6.00;3.30;;;24.60;62.80;;;;;;6289715;28;20424;-77
2021/09/27 15:58:42;;;;;;;5.17;2.93;;;24.70;63.30;;;;;;6295769;28;20507;-77
2021/09/27 16:01:44;;;;;;;4.28;3.30;;;24.80;63.50;;;;;;6290097;28;20421;-77
2021/09/27 16:04:46;;;;;;;5.15;3.30;;;24.80;61.90;;;;;;6283649;28;20432;-77
2021/09/27 16:07:48;;;;;;;6.32;3.40;;;24.90;61.20;;;;;;6287274;28;20772;-77